Latest Weather Observations for Moree

IDN60801

Issued at 9:03 pm EDT Sunday 25 January 2015 (issued every 30 minutes, with the page automatically refreshed every 10 minutes)

About weather observations | Map of weather stations | Latest weather observations for NSW | Other Formats
Station Details ID: 053115 Name: MOREE AERO Lat: -29.49 Lon: 149.85 Height: 213.0 m
Data from the previous 72 hours. | See also: Recent months at Moree
Date/Time
EDT
Temp
°C
App
Temp
°C
Dew
Point
Rel
Hum
%
Delta-T
°C
Wind Press
QNH
hPa
Press
MSL
hPa
Rain
since 9 am
mm
Dir
 
Spd
km/h
Gust
km/h
Spd
kts
Gust
kts
25/09:00pm 31.0 28.5 9.8 27 12.2 S 13 13 7 7 1004.4 - 0.0
25/08:30pm 33.0 30.5 10.9 26 13.0 SSW 15 19 8 10 1003.8 - 0.0
25/08:00pm 34.7 31.5 11.2 24 14.0 SSW 19 28 10 15 1003.5 - 0.0
25/07:30pm 36.2 31.4 10.4 21 15.2 SSW 26 32 14 17 1003.1 - 0.0
25/07:00pm 37.3 31.6 9.8 19 16.1 SW 30 37 16 20 1002.8 - 0.0
25/06:30pm 37.9 34.4 10.3 19 16.4 SW 19 33 10 18 1002.5 - 0.0
25/06:00pm 38.0 32.8 10.4 19 16.5 SW 28 35 15 19 1002.5 1001.2 0.0
25/05:30pm 36.7 32.0 10.8 21 15.4 SW 26 35 14 19 1002.6 - 0.0
25/05:00pm 37.6 34.3 12.9 23 15.2 SW 22 33 12 18 1002.7 - 0.0
25/04:30pm 37.3 34.8 14.0 25 14.6 SW 20 33 11 18 1002.8 - 0.0
25/04:00pm 37.0 33.6 13.7 25 14.5 SW 24 33 13 18 1003.2 - 0.0
25/03:30pm 36.9 35.2 14.8 26 13.9 SW 17 28 9 15 1003.4 - 0.0
25/03:00pm 36.9 34.4 13.6 24 14.5 SW 19 24 10 13 1003.7 1002.3 0.0
25/02:30pm 36.9 34.4 14.2 25 14.2 W 20 30 11 16 1004.1 - 0.0
25/02:00pm 35.5 34.8 15.3 30 12.8 W 13 26 7 14 1004.4 - 0.0
25/01:30pm 35.4 34.6 15.2 30 12.7 W 13 19 7 10 1004.8 - 0.0
25/01:00pm 34.3 34.7 15.2 31 12.0 NNE 7 20 4 11 1005.1 - 0.0
25/12:30pm 34.5 35.5 17.7 37 10.9 W 9 24 5 13 1005.5 - 0.0
25/12:00pm 33.4 34.5 17.1 37 10.5 WNW 7 17 4 9 1006.0 1004.7 0.0
25/11:30am 32.3 31.4 17.7 41 9.4 NW 19 24 10 13 1006.3 - 0.0
25/11:00am 31.5 32.4 18.5 46 8.5 N 11 22 6 12 1006.5 - 0.0
25/10:30am 30.8 32.6 18.8 48 7.8 N 7 24 4 13 1006.6 - 0.0
25/10:00am 29.8 30.7 19.2 53 6.9 N 13 20 7 11 1006.8 - 0.0
25/09:30am 28.9 28.9 19.8 58 6.0 N 19 26 10 14 1006.9 - 0.0
25/09:00am 28.4 29.2 19.9 60 5.6 N 15 22 8 12 1007.0 1005.7 0.0
25/08:30am 27.1 27.5 19.9 64 4.7 NNE 17 20 9 11 1006.8 - 0.0
25/08:00am 26.1 26.7 19.5 67 4.3 NE 15 19 8 10 1006.7 - 0.0
25/07:30am 25.1 25.4 19.7 72 3.5 NE 17 20 9 11 1006.1 - 0.0
25/07:00am 23.7 24.6 19.2 76 2.9 NNE 13 15 7 8 1006.0 - 0.0
25/06:30am 23.3 24.2 19.2 78 2.6 NNE 13 17 7 9 1005.7 - 0.0
25/05:30am 23.2 24.1 18.3 74 3.1 NNE 11 11 6 6 1005.5 - 0.0
25/05:00am 23.4 26.3 18.1 72 3.3 CALM 0 0 0 0 1005.5 - 0.0
25/04:30am 24.0 26.3 17.7 68 4.0 N 2 7 1 4 1005.5 - 0.0
25/04:00am 24.0 24.9 17.5 67 4.1 WNW 9 11 5 6 1005.6 - 0.0
25/03:30am 23.8 24.7 17.5 68 3.9 NW 9 11 5 6 1005.4 - 0.0
25/03:00am 24.7 25.8 17.9 66 4.3 WNW 9 11 5 6 1005.7 1004.4 0.0
25/02:30am 24.7 24.0 18.2 67 4.1 WSW 19 32 10 17 1005.7 - 0.0
25/02:00am 25.1 26.3 18.3 66 4.3 N 9 11 5 6 1005.5 - 0.0
25/01:30am 25.4 26.5 18.1 64 4.6 N 9 11 5 6 1005.8 - 0.0
25/01:00am 25.7 26.4 17.9 62 5.0 N 11 15 6 8 1005.9 - 0.0
25/12:30am 26.0 26.9 17.6 60 5.3 N 9 11 5 6 1006.3 - 0.0
25/12:00am 26.6 26.7 17.4 57 5.8 N 13 17 7 9 1006.4 1005.1 0.0
 
Date/Time
EDT
Temp
°C
App
Temp
°C
Dew
Point
Rel
Hum
%
Delta-T
°C
Wind Press
QNH
hPa
Press
MSL
hPa
Rain
since 9 am
mm
Dir
 
Spd
km/h
Gust
km/h
Spd
kts
Gust
kts
24/11:30pm 27.2 27.4 16.8 53 6.5 N 11 15 6 8 1006.5 - 0.0
24/11:00pm 27.4 27.7 16.1 50 7.0 N 9 13 5 7 1006.4 - 0.0
24/10:30pm 27.3 26.9 15.3 48 7.4 N 11 13 6 7 1006.0 - 0.0
24/10:00pm 27.7 28.4 15.7 48 7.4 N 6 11 3 6 1005.8 - 0.0
24/09:30pm 27.3 29.3 16.0 50 7.0 CALM 0 0 0 0 1005.6 - 0.0
24/09:00pm 28.8 30.0 13.9 40 9.0 CALM 0 0 0 0 1005.2 1003.9 0.0
24/08:30pm 29.6 30.7 13.4 37 9.7 CALM 0 0 0 0 1004.6 - 0.0
24/08:00pm 30.8 29.8 12.2 32 11.0 NNE 9 13 5 7 1004.2 - 0.0
24/07:30pm 32.0 30.1 11.7 28 12.0 NE 13 15 7 8 1004.0 - 0.0
24/07:00pm 32.4 30.8 11.6 28 12.3 NE 11 17 6 9 1003.7 - 0.0
24/06:30pm 32.6 30.6 12.8 30 11.9 NNE 15 24 8 13 1003.5 - 0.0
24/06:00pm 32.5 30.0 12.2 29 12.2 NNE 17 24 9 13 1003.6 1002.2 0.0
24/05:30pm 32.9 30.8 12.5 29 12.3 NNE 15 22 8 12 1003.7 - 0.0
24/05:00pm 33.0 30.8 12.1 28 12.5 NNE 15 26 8 14 1004.2 - 0.0
24/04:30pm 32.5 31.6 12.7 30 11.9 NNE 9 19 5 10 1004.8 - 0.0
24/04:00pm 32.2 30.6 12.9 31 11.6 N 13 22 7 12 1005.3 - 0.0
24/03:30pm 33.0 32.0 14.6 33 11.4 ENE 13 26 7 14 1005.6 - 0.0
24/03:00pm 31.9 30.6 13.6 32 11.2 E 13 28 7 15 1006.0 1004.7 0.0
24/02:30pm 31.6 31.5 13.8 34 10.8 ENE 7 19 4 10 1006.3 - 0.0
24/02:00pm 31.8 31.7 14.9 36 10.5 E 9 15 5 8 1006.5 - 0.0
24/01:30pm 31.2 31.3 15.6 39 9.8 E 9 17 5 9 1007.0 - 0.0
24/01:00pm 30.7 30.7 16.3 42 9.1 ENE 11 19 6 10 1007.3 - 0.0
24/12:30pm 29.9 30.4 15.6 42 8.9 ENE 7 13 4 7 1007.6 - 0.0
24/12:00pm 29.2 29.8 15.7 44 8.4 E 7 17 4 9 1008.2 1006.9 0.0
24/11:30am 28.4 28.2 15.7 46 7.9 NE 11 17 6 9 1008.2 - 0.0
24/11:00am 28.3 27.3 16.6 49 7.3 NE 17 28 9 15 1008.3 - 0.0
24/10:30am 27.3 25.9 15.6 48 7.2 E 17 20 9 11 1008.5 - 0.0
24/10:00am 27.1 25.9 16.1 51 6.8 E 17 20 9 11 1008.5 - 0.0
24/09:30am 26.5 25.4 16.4 53 6.3 ENE 17 20 9 11 1008.6 - 0.0
24/09:00am 25.9 25.2 17.3 59 5.4 ENE 17 20 9 11 1008.8 1007.5 2.0
24/08:30am 24.7 25.3 17.7 65 4.4 E 11 15 6 8 1008.7 - 2.0
24/08:00am 22.9 24.2 18.4 76 2.9 E 9 13 5 7 1008.5 - 2.0
24/07:30am 21.7 24.8 19.4 87 1.5 - 2 9 1 5 1008.2 - 2.0
24/07:00am 19.7 22.6 18.2 91 0.9 CALM 0 0 0 0 1007.9 - 2.0
24/06:30am 19.6 22.4 17.9 90 1.1 CALM 0 4 0 2 1007.4 - 2.0
24/06:00am 20.0 22.9 18.1 89 1.2 CALM 0 0 0 0 1007.2 1005.9 2.0
24/05:30am 20.4 23.3 18.3 88 1.3 CALM 0 0 0 0 1007.2 - 2.0
24/05:00am 20.9 22.1 18.3 85 1.6 ESE 9 9 5 5 1006.9 - 2.0
24/04:30am 20.9 22.5 18.3 85 1.6 SSE 7 9 4 5 1006.8 - 2.0
24/04:00am 21.4 22.8 17.8 80 2.2 SSE 7 9 4 5 1007.0 - 2.0
24/03:30am 21.8 22.0 17.6 77 2.6 ENE 13 19 7 10 1006.9 - 2.0
24/03:00am 21.3 23.0 18.5 84 1.8 NE 7 9 4 5 1007.1 1005.8 2.0
24/02:30am 21.5 22.9 18.7 84 1.8 E 9 11 5 6 1007.3 - 2.0
24/02:00am 21.7 23.4 18.5 82 2.0 E 7 9 4 5 1007.4 - 2.0
24/01:30am 21.8 23.1 18.4 81 2.1 ESE 9 11 5 6 1007.6 - 2.0
24/01:00am 22.0 23.6 18.2 79 2.4 E 7 9 4 5 1008.0 - 2.0
24/12:30am 22.2 22.3 18.4 79 2.4 ENE 15 20 8 11 1008.0 - 2.0
24/12:00am 21.7 23.6 18.9 84 1.8 E 7 9 4 5 1008.0 1006.7 2.0
 
Date/Time
EDT
Temp
°C
App
Temp
°C
Dew
Point
Rel
Hum
%
Delta-T
°C
Wind Press
QNH
hPa
Press
MSL
hPa
Rain
since 9 am
mm
Dir
 
Spd
km/h
Gust
km/h
Spd
kts
Gust
kts
23/11:30pm 21.5 23.6 19.4 88 1.3 ESE 7 9 4 5 1008.3 - 2.0
23/11:00pm 21.9 25.1 18.9 83 1.9 CALM 0 2 0 1 1008.4 - 2.0
23/10:30pm 22.3 23.7 18.7 80 2.3 NE 9 9 5 5 1008.0 - 2.0
23/10:00pm 22.7 26.0 19.1 80 2.3 CALM 0 0 0 0 1008.0 - 2.0
23/09:30pm 23.0 24.3 19.4 80 2.3 NNE 11 13 6 7 1007.7 - 2.0
23/09:00pm 23.4 24.7 19.3 78 2.6 NNE 11 15 6 8 1008.0 1006.7 2.0
23/08:30pm 24.2 24.7 18.4 70 3.7 NE 13 15 7 8 1008.0 - 2.0
23/08:00pm 24.9 25.6 18.8 69 3.9 NNE 13 17 7 9 1007.6 - 2.0
23/07:30pm 25.6 26.0 19.9 70 3.7 NE 17 20 9 11 1007.3 - 2.0
23/07:00pm 26.4 27.0 19.5 66 4.5 ENE 15 19 8 10 1006.9 - 2.0
23/06:30pm 26.6 27.3 19.7 66 4.5 NE 15 19 8 10 1006.7 - 2.0
23/06:00pm 25.7 27.4 19.3 67 4.2 NNE 9 13 5 7 1006.4 1005.1 2.0
23/05:30pm 24.8 26.0 19.0 70 3.7 NE 11 15 6 8 1006.6 - 2.0
23/05:00pm 24.0 23.4 18.4 71 3.6 NE 19 26 10 14 1006.9 - 2.0
23/04:30pm 23.8 22.9 18.2 71 3.5 NE 20 28 11 15 1007.3 - 2.0
23/04:00pm 26.2 26.6 19.8 68 4.2 E 17 26 9 14 1007.5 - 2.0
23/03:30pm 25.7 26.5 19.8 70 3.9 E 15 20 8 11 1008.0 - 1.8
23/03:00pm 24.9 25.6 19.7 73 3.4 E 15 19 8 10 1008.5 1007.2 1.8
23/02:30pm 24.6 25.7 19.7 74 3.2 E 13 17 7 9 1008.5 - 1.8
23/02:00pm 24.6 24.6 19.0 71 3.6 E 17 22 9 12 1008.9 - 1.8
23/01:30pm 24.4 24.8 19.9 76 2.9 E 17 20 9 11 1009.3 - 1.8
23/01:08pm 24.1 24.9 20.6 81 2.3 E 17 20 9 11 1009.5 - 1.8
23/01:00pm 23.9 24.2 20.4 81 2.3 E 19 26 10 14 1009.6 - 1.8
23/12:50pm 23.7 24.4 20.4 82 2.2 E 17 24 9 13 1009.8 - 1.8
23/12:30pm 23.0 22.9 20.0 83 1.9 E 20 28 11 15 1010.2 - 1.8
23/12:00pm 22.6 23.2 20.3 87 1.5 E 17 22 9 12 1010.4 1009.1 1.8
23/11:30am 22.4 24.0 20.7 90 1.1 E 13 17 7 9 1010.4 - 1.6
23/11:00am 21.9 22.5 20.2 90 1.1 NE 17 24 9 13 1010.6 - 1.2
23/10:30am 22.0 22.1 19.9 88 1.4 NE 19 24 10 13 1010.5 - 0.6
23/10:00am 22.4 22.3 19.9 86 1.6 NE 20 28 11 15 1010.5 - 0.0
23/09:30am 23.1 23.2 19.9 82 2.1 NNE 19 26 10 14 1010.4 - 0.0
23/09:00am 23.7 24.4 19.6 78 2.7 NE 15 20 8 11 1010.2 1008.9 0.0
23/08:30am 24.1 24.6 19.2 74 3.2 NE 15 19 8 10 1010.0 - 0.0
23/08:00am 24.1 24.5 19.0 73 3.3 ENE 15 20 8 11 1009.7 - 0.0
23/07:30am 23.4 24.0 18.7 75 3.0 ENE 13 17 7 9 1009.5 - 0.0
23/07:00am 23.2 23.9 18.9 77 2.7 ENE 13 17 7 9 1009.2 - 0.0
23/06:30am 23.1 23.7 18.6 76 2.9 ENE 13 17 7 9 1009.0 - 0.0
23/06:00am 23.0 22.4 18.5 76 2.9 ENE 19 26 10 14 1008.7 1007.4 0.0
23/05:30am 22.7 23.4 18.9 79 2.4 E 13 17 7 9 1008.6 - 0.0
23/05:00am 22.3 22.9 18.7 80 2.3 ENE 13 15 7 8 1008.5 - 0.0
23/04:30am 22.5 24.0 18.9 80 2.3 E 9 13 5 7 1008.5 - 0.0
23/04:00am 22.7 23.3 18.7 78 2.5 ENE 13 17 7 9 1008.4 - 0.0
23/03:30am 22.5 23.1 18.7 79 2.4 ENE 13 17 7 9 1008.6 - 0.0
23/03:00am 22.6 23.5 19.2 81 2.2 ENE 13 17 7 9 1008.7 1007.4 0.0
23/02:30am 22.9 24.1 19.1 79 2.4 E 11 13 6 7 1008.9 - 0.0
23/02:00am 22.8 24.1 19.2 80 2.3 E 11 15 6 8 1009.0 - 0.0
23/01:30am 22.3 23.9 19.1 82 2.0 E 9 13 5 7 1009.2 - 0.0
23/01:00am 22.5 23.3 19.1 81 2.2 E 13 17 7 9 1009.3 - 0.0
23/12:30am 22.8 23.6 19.0 79 2.4 E 13 19 7 10 1009.4 - 0.0
23/12:00am 23.2 23.2 18.9 77 2.8 ENE 17 22 9 12 1009.4 1008.1 0.0
 
Date/Time
EDT
Temp
°C
App
Temp
°C
Dew
Point
Rel
Hum
%
Delta-T
°C
Wind Press
QNH
hPa
Press
MSL
hPa
Rain
since 9 am
mm
Dir
 
Spd
km/h
Gust
km/h
Spd
kts
Gust
kts
22/11:30pm 23.6 23.2 18.9 75 3.0 E 19 28 10 15 1009.3 - 0.0
22/11:00pm 24.1 23.6 18.7 72 3.5 ENE 19 26 10 14 1009.3 - 0.0
22/10:30pm 24.5 24.5 18.2 68 4.0 ENE 15 19 8 10 1009.0 - 0.0
22/10:00pm 25.3 25.3 18.2 64 4.5 ENE 15 22 8 12 1008.9 - 0.0
22/09:30pm 25.9 25.9 18.1 62 5.0 E 15 20 8 11 1008.6 - 0.0

Other Formats:

Comma delimited format used in spreadsheet applications
http://www.bom.gov.au/fwo/IDN60801/IDN60801.95527.axf

JavaScript Object Notation format (JSON) in row-major order
http://www.bom.gov.au/fwo/IDN60801/IDN60801.95527.json